NWWM

Details ICAO NWWM (GEA)
Name NOUMEA MAGENTA
Region New Caledonia
Timezone Pacific/Noumea (UTC+11.0)
Plans Departing 21
Arriving 23
Stats Elevation 10 ft / 3 m (AMSL)
Location -22.258278° 166.472805°
Runways 1
Magnetic Variation 12.459° E
Sunrise 2018-05-26 19:25:17 UTC / 2018-05-27 06:25:17 Local
Sunset 2018-05-27 06:20:01 UTC / 2018-05-27 17:20:01 Local
Advertisement - Login to hide

Runways

ID Width Length Bearing (true) Bearing (mag) Surface Threshold Offset Overrun Length
17 98 ft / 30 m 4,153 ft / 1,266 m 178.58° 166.12° Asphalt 685 ft / 209 m 0 ft / 0 m
35 98 ft / 30 m 4,153 ft / 1,266 m 358.58° 346.12° Asphalt 500 ft / 152 m 0 ft / 0 m

Map

Weather


0- 5 10 15 20 25 30 35+ Temperature / ° C

Clouds and Precipitation
Forecast for 2018-05-26 18:00 UTC. Updated an hour ago

Ground ~20,000 ft ~40,000 ft Winds

METAR

Not found

TAF

TAF NWWM 261700Z 2618/2718 11015KT 9999 RA SCT030 BKN050 BKN090 TEMPO 2618/2709 11020G30KT 4500 SHRA BKN014 SCT020TCU PROB40 TEMPO 2618/2703 2500 SHRA BKN009 FEW020CB PROB30 TEMPO 2715/2718 2500 SHRA BKN009 FEW020CB

Frequencies

Recorded 126.60 MHz ATIS
Tower 118.30 MHz TWR
Recorded 126.40 MHz ATIS
Approach 124.30 MHz APP
Warning: Do not use this data for real-world aviation or navigation. No guarantee of current accuracy is given.